Time;durP1;ratioP1;P1;durP2;ratioP2;P2;SDS_P1;SDS_P2;PMS_P1;PMS_P2;Temp;Humidity;BMP_temperature;BMP_pressure;BME280_temperature;BME280_humidity;BME280_pressure;Samples;Min_cycle;Max_cycle;Signal;HPM_P1;HPM_P2
2020/12/24 00:01:10;;;;;;;67.50;51.78;;;14.40;77.60;;;;;;5054868;28;20032;-71
2020/12/24 00:03:36;;;;;;;69.57;51.80;;;14.40;77.30;;;;;;5055194;28;20049;-69
2020/12/24 00:06:02;;;;;;;63.85;51.67;;;14.40;77.20;;;;;;5055263;28;20017;-71
2020/12/24 00:08:27;;;;;;;66.20;52.65;;;14.40;77.20;;;;;;5054988;28;20029;-74
2020/12/24 00:10:53;;;;;;;71.53;55.03;;;14.30;77.00;;;;;;5054259;28;20055;-77
2020/12/24 00:13:19;;;;;;;71.55;53.25;;;14.30;77.20;;;;;;5054318;28;20079;-75
2020/12/24 00:15:44;;;;;;;68.60;53.65;;;14.30;77.30;;;;;;5054220;28;20044;-73
2020/12/24 00:18:10;;;;;;;64.75;51.63;;;14.20;77.20;;;;;;5054653;28;20024;-78
2020/12/24 00:20:36;;;;;;;63.55;50.95;;;14.20;77.20;;;;;;5054487;28;20112;-76
2020/12/24 00:23:02;;;;;;;63.83;51.45;;;14.20;77.20;;;;;;5054315;28;20056;-77
2020/12/24 00:25:29;;;;;;;60.15;50.83;;;14.30;77.20;;;;;;5054666;28;20104;-77
2020/12/24 00:27:54;;;;;;;66.60;51.30;;;14.30;77.10;;;;;;5054231;28;20052;-77
2020/12/24 00:30:20;;;;;;;63.55;50.10;;;14.30;76.90;;;;;;5053823;28;20371;-77
2020/12/24 00:32:46;;;;;;;61.35;49.85;;;14.30;76.60;;;;;;5054167;28;20025;-75
2020/12/24 00:35:12;;;;;;;60.80;47.35;;;14.30;77.00;;;;;;5054028;28;20482;-79
2020/12/24 00:37:38;;;;;;;61.50;46.80;;;14.30;76.90;;;;;;5054013;28;20025;-77
2020/12/24 00:40:04;;;;;;;61.38;47.85;;;14.30;76.60;;;;;;5054034;28;20470;-74
2020/12/24 00:42:30;;;;;;;63.80;49.30;;;14.40;76.60;;;;;;5053815;28;20036;-77
2020/12/24 00:44:55;;;;;;;63.83;48.63;;;14.40;76.60;;;;;;5053809;28;20375;-74
2020/12/24 00:47:21;;;;;;;62.15;48.70;;;14.40;76.30;;;;;;5053849;28;20059;-77
2020/12/24 00:49:47;;;;;;;58.35;47.97;;;14.40;76.60;;;;;;5053689;28;20028;-75
2020/12/24 00:52:13;;;;;;;58.83;48.90;;;14.40;76.50;;;;;;5053724;28;20029;-75
2020/12/24 00:54:38;;;;;;;59.38;47.00;;;14.40;76.60;;;;;;5053612;28;20029;-71
2020/12/24 00:57:04;;;;;;;57.05;47.83;;;14.40;76.40;;;;;;5053830;28;20029;-74
2020/12/24 00:59:30;;;;;;;55.13;46.35;;;14.40;76.20;;;;;;5053610;28;20508;-76
2020/12/24 01:01:56;;;;;;;59.78;48.17;;;14.40;76.10;;;;;;5053653;28;20043;-76
2020/12/24 01:04:21;;;;;;;63.17;48.83;;;14.40;76.10;;;;;;5053426;28;20108;-78
2020/12/24 01:06:47;;;;;;;60.90;48.05;;;14.30;76.60;;;;;;5053575;28;20021;-76
2020/12/24 01:11:55;;;;;;;59.58;45.65;;;14.20;76.70;;;;;;5032256;28;20054;-63
2020/12/24 01:14:21;;;;;;;59.30;45.83;;;14.10;76.60;;;;;;5033551;28;20128;-64
2020/12/24 01:16:46;;;;;;;55.95;45.50;;;14.10;76.80;;;;;;5033370;28;20048;-63
2020/12/24 01:19:12;;;;;;;54.75;44.13;;;14.20;76.70;;;;;;5037670;28;20113;-66
2020/12/24 01:21:38;;;;;;;60.65;46.33;;;14.20;77.20;;;;;;5053537;28;20063;-63
2020/12/24 01:24:03;;;;;;;60.28;45.28;;;14.20;76.60;;;;;;5053135;28;20020;-63
2020/12/24 01:26:29;;;;;;;59.72;46.33;;;14.20;76.50;;;;;;5052501;28;20094;-63
2020/12/24 01:28:55;;;;;;;56.70;44.30;;;14.20;76.40;;;;;;5052984;28;20497;-63
2020/12/24 01:31:20;;;;;;;51.28;43.70;;;14.20;76.50;;;;;;5053158;28;20051;-63
2020/12/24 01:33:46;;;;;;;57.65;45.33;;;14.20;76.40;;;;;;5053077;28;20477;-62
2020/12/24 01:36:12;;;;;;;58.97;45.08;;;14.20;76.40;;;;;;5053158;28;20040;-63
2020/12/24 01:38:40;;;;;;;58.67;42.65;;;14.20;76.30;;;;;;5052980;28;20107;-66
2020/12/24 01:41:06;;;;;;;51.20;43.88;;;14.30;76.40;;;;;;5052894;28;20083;-63
2020/12/24 01:43:32;;;;;;;49.65;41.22;;;14.30;76.10;;;;;;5053027;28;20021;-63
2020/12/24 01:45:58;;;;;;;51.67;41.38;;;14.30;76.20;;;;;;5052914;28;20492;-63
2020/12/24 01:48:25;;;;;;;52.85;42.83;;;14.30;76.20;;;;;;5053009;28;20095;-63
2020/12/24 01:50:50;;;;;;;51.22;42.47;;;14.30;76.00;;;;;;5052666;28;20103;-63
2020/12/24 01:53:24;;;;;;;53.03;42.38;;;14.30;76.10;;;;;;5052974;28;20479;-64
2020/12/24 01:55:51;;;;;;;51.60;42.28;;;14.30;76.30;;;;;;5051490;28;20033;-63
2020/12/24 01:58:18;;;;;;;54.42;41.78;;;14.20;76.00;;;;;;5052967;28;20493;-64
2020/12/24 02:00:47;;;;;;;54.17;43.42;;;14.30;76.10;;;;;;5052744;28;20355;-62
2020/12/24 02:03:14;;;;;;;54.30;43.38;;;14.30;75.80;;;;;;5052560;28;20029;-64
2020/12/24 02:05:40;;;;;;;55.60;43.08;;;14.20;76.20;;;;;;5052847;28;20048;-63
2020/12/24 02:08:07;;;;;;;49.72;41.75;;;14.20;76.60;;;;;;5052658;28;20411;-63
2020/12/24 02:10:32;;;;;;;49.47;43.15;;;14.20;76.40;;;;;;5052481;28;20559;-63
2020/12/24 02:12:58;;;;;;;57.00;42.00;;;14.20;76.40;;;;;;5052724;28;20033;-63
2020/12/24 02:15:24;;;;;;;46.25;40.05;;;14.30;76.40;;;;;;5052680;28;20497;-63
2020/12/24 02:17:49;;;;;;;52.35;40.80;;;14.30;76.10;;;;;;5052447;28;20032;-64
2020/12/24 02:20:15;;;;;;;50.30;41.20;;;14.30;76.00;;;;;;5052367;28;20028;-62
2020/12/24 02:22:41;;;;;;;54.63;41.50;;;14.30;76.20;;;;;;5052595;28;20466;-63
2020/12/24 02:25:06;;;;;;;48.80;40.40;;;14.30;76.20;;;;;;5052579;28;20510;-64
2020/12/24 02:27:32;;;;;;;49.67;40.97;;;14.30;76.10;;;;;;5052635;28;20028;-64
2020/12/24 02:30:01;;;;;;;50.22;39.03;;;14.30;76.00;;;;;;5052554;28;20029;-63
2020/12/24 02:32:28;;;;;;;50.10;38.97;;;14.30;76.10;;;;;;5052364;28;20044;-63
2020/12/24 02:34:55;;;;;;;47.70;39.35;;;14.30;76.20;;;;;;5052518;28;20370;-64
2020/12/24 02:37:24;;;;;;;48.55;39.15;;;14.30;76.20;;;;;;5052420;28;20115;-64
2020/12/24 02:39:51;;;;;;;48.47;39.90;;;14.30;76.30;;;;;;5055893;28;20060;-63
2020/12/24 02:42:18;;;;;;;51.58;41.05;;;14.30;76.10;;;;;;5056201;28;20377;-64
2020/12/24 02:44:44;;;;;;;44.75;38.85;;;14.30;76.10;;;;;;5056027;28;20021;-63
2020/12/24 02:47:10;;;;;;;48.03;39.50;;;14.20;76.20;;;;;;5055866;28;20025;-64
2020/12/24 02:49:35;;;;;;;49.55;39.15;;;14.20;76.10;;;;;;5056054;28;20538;-63
2020/12/24 02:52:01;;;;;;;47.42;38.45;;;14.20;76.40;;;;;;5056037;28;20108;-63
2020/12/24 02:54:27;;;;;;;49.28;40.33;;;14.20;76.20;;;;;;5055788;28;20374;-63
2020/12/24 02:56:52;;;;;;;49.95;40.58;;;14.20;76.30;;;;;;5055629;28;20033;-63
2020/12/24 02:59:18;;;;;;;47.50;39.78;;;14.20;76.30;;;;;;5055551;28;20501;-63
2020/12/24 03:01:44;;;;;;;44.95;39.97;;;14.20;76.40;;;;;;5055888;28;20064;-63
2020/12/24 03:04:09;;;;;;;47.72;41.22;;;14.20;77.10;;;;;;5055874;28;20023;-63
2020/12/24 03:06:35;;;;;;;56.97;42.28;;;14.10;76.40;;;;;;5055620;28;20024;-64
2020/12/24 03:09:01;;;;;;;49.95;40.42;;;14.10;76.50;;;;;;5055683;28;21678;-62
2020/12/24 03:11:26;;;;;;;50.88;40.85;;;14.10;76.60;;;;;;5055389;28;20052;-63
2020/12/24 03:13:52;;;;;;;49.63;40.22;;;14.10;76.50;;;;;;5055564;28;20025;-63
2020/12/24 03:16:18;;;;;;;47.20;40.20;;;14.20;76.60;;;;;;5055186;28;20045;-63
2020/12/24 03:18:43;;;;;;;53.58;40.92;;;14.20;76.40;;;;;;5055745;28;20024;-63
2020/12/24 03:21:09;;;;;;;47.83;40.22;;;14.20;76.50;;;;;;5055336;28;20029;-63
2020/12/24 03:23:35;;;;;;;49.40;41.47;;;14.20;76.40;;;;;;5055526;28;20052;-63
2020/12/24 03:26:00;;;;;;;49.33;39.92;;;14.20;76.40;;;;;;5055234;28;20040;-64
2020/12/24 03:28:26;;;;;;;53.45;41.28;;;14.30;76.30;;;;;;5055020;28;20028;-63
2020/12/24 03:30:51;;;;;;;48.85;40.53;;;14.30;76.10;;;;;;5054891;28;20434;-63
2020/12/24 03:33:17;;;;;;;51.72;40.75;;;14.30;76.10;;;;;;5055176;28;20021;-63
2020/12/24 03:35:43;;;;;;;51.25;41.45;;;14.30;76.40;;;;;;5055113;28;20078;-64
2020/12/24 03:38:08;;;;;;;51.92;40.53;;;14.30;76.20;;;;;;5055101;28;20108;-68
2020/12/24 03:40:34;;;;;;;50.50;40.15;;;14.20;76.20;;;;;;5054856;28;20466;-68
2020/12/24 03:43:00;;;;;;;50.78;41.20;;;14.20;76.20;;;;;;5054983;28;20063;-63
2020/12/24 03:45:28;;;;;;;45.90;38.92;;;14.20;76.10;;;;;;5054866;28;20449;-62
2020/12/24 03:47:53;;;;;;;48.58;39.58;;;14.20;76.40;;;;;;5054735;28;20060;-65
2020/12/24 03:50:19;;;;;;;46.85;38.72;;;14.20;76.20;;;;;;5054159;28;20063;-69
2020/12/24 03:52:45;;;;;;;51.08;40.80;;;14.30;76.20;;;;;;5054845;28;20021;-69
2020/12/24 03:55:10;;;;;;;50.95;40.72;;;14.30;76.00;;;;;;5054643;28;20047;-68
2020/12/24 03:57:36;;;;;;;49.55;38.67;;;14.30;76.00;;;;;;5053030;28;20177;-66
2020/12/24 04:00:03;;;;;;;53.08;39.47;;;14.30;76.00;;;;;;5054710;28;20021;-66
2020/12/24 04:02:29;;;;;;;53.92;40.70;;;14.30;76.20;;;;;;5054635;28;20040;-68
2020/12/24 04:04:55;;;;;;;47.55;39.00;;;14.30;76.30;;;;;;5054602;28;20033;-66
2020/12/24 04:07:20;;;;;;;50.22;38.83;;;14.30;76.10;;;;;;5054464;28;20031;-63
2020/12/24 04:09:46;;;;;;;49.03;39.22;;;14.30;76.30;;;;;;5054364;28;20112;-64
2020/12/24 04:12:12;;;;;;;48.28;40.53;;;14.20;76.10;;;;;;5054226;28;20037;-63
2020/12/24 04:14:37;;;;;;;45.88;39.92;;;14.20;76.30;;;;;;5054428;28;20051;-63
2020/12/24 04:17:03;;;;;;;50.83;40.35;;;14.30;76.40;;;;;;5054141;28;20413;-64
2020/12/24 04:19:29;;;;;;;49.08;38.15;;;14.30;76.40;;;;;;5054107;28;20025;-61
2020/12/24 04:21:55;;;;;;;46.20;38.13;;;14.30;76.20;;;;;;5054037;28;20040;-63
2020/12/24 04:24:20;;;;;;;47.35;36.85;;;14.30;76.10;;;;;;5054139;28;20083;-63
2020/12/24 04:26:46;;;;;;;44.72;38.25;;;14.30;76.20;;;;;;5054030;28;20082;-64
2020/12/24 04:29:12;;;;;;;47.63;39.00;;;14.30;76.20;;;;;;5054047;28;20407;-64
2020/12/24 04:31:43;;;;;;;49.28;37.85;;;14.30;76.10;;;;;;5054301;28;20040;-63
2020/12/24 04:34:10;;;;;;;48.63;37.65;;;14.30;75.90;;;;;;5053887;28;20024;-63
2020/12/24 04:36:36;;;;;;;49.70;38.47;;;14.30;75.90;;;;;;5053894;28;20407;-63
2020/12/24 04:39:03;;;;;;;48.00;40.03;;;14.30;75.80;;;;;;5053864;28;20044;-64
2020/12/24 04:41:29;;;;;;;53.05;42.00;;;14.30;75.90;;;;;;5053609;28;20029;-63
2020/12/24 04:43:57;;;;;;;50.80;42.72;;;14.30;76.20;;;;;;5053837;28;20096;-63
2020/12/24 04:46:27;;;;;;;50.95;41.17;;;14.30;76.30;;;;;;5053365;28;20505;-64
2020/12/24 04:48:52;;;;;;;53.03;41.38;;;14.30;76.10;;;;;;5053556;28;20017;-63
2020/12/24 04:51:21;;;;;;;51.17;41.42;;;14.30;76.20;;;;;;5053709;28;20036;-63
2020/12/24 04:53:47;;;;;;;52.55;40.72;;;14.30;75.90;;;;;;5053525;28;20021;-63
2020/12/24 04:56:13;;;;;;;48.10;39.90;;;14.30;76.00;;;;;;5053769;28;20037;-63
2020/12/24 04:58:43;;;;;;;48.83;39.17;;;14.30;76.30;;;;;;5053532;28;20496;-64
2020/12/24 05:01:16;;;;;;;46.17;37.50;;;14.30;76.30;;;;;;5052883;28;20470;-63
2020/12/24 05:03:43;;;;;;;45.58;39.83;;;14.30;76.20;;;;;;5053570;28;20036;-63
2020/12/24 05:06:16;;;;;;;47.92;40.35;;;14.30;76.30;;;;;;5053486;28;20511;-63
2020/12/24 05:08:53;;;;;;;47.72;40.05;;;14.30;76.00;;;;;;5053457;28;20455;-64
2020/12/24 05:11:30;;;;;;;47.22;32.72;;;14.40;76.30;;;;;;5053085;28;20132;-63
2020/12/24 05:13:56;;;;;;;35.20;28.55;;;14.40;76.00;;;;;;5053305;28;20035;-64
2020/12/24 05:16:22;;;;;;;38.53;31.13;;;14.40;75.60;;;;;;5053343;28;20338;-63
2020/12/24 05:18:48;;;;;;;35.05;29.40;;;14.40;75.60;;;;;;5053078;28;20025;-64
2020/12/24 05:21:31;;;;;;;32.05;24.77;;;14.40;75.60;;;;;;5053312;28;20029;-63
2020/12/24 05:23:57;;;;;;;30.65;25.50;;;14.40;75.70;;;;;;5053062;28;20112;-63
2020/12/24 05:26:23;;;;;;;30.48;22.92;;;14.40;75.60;;;;;;5053326;28;20145;-63
2020/12/24 05:28:48;;;;;;;28.55;22.23;;;14.40;75.70;;;;;;5052868;28;20040;-63
2020/12/24 05:31:34;;;;;;;27.30;20.73;;;14.40;75.80;;;;;;5053213;28;20021;-63
2020/12/24 05:34:00;;;;;;;23.45;18.10;;;14.40;75.80;;;;;;5053044;28;20052;-63
2020/12/24 05:36:25;;;;;;;25.17;18.70;;;14.40;75.90;;;;;;5052790;28;20490;-63
2020/12/24 05:38:52;;;;;;;24.08;19.23;;;14.40;75.80;;;;;;5052921;28;20017;-63
2020/12/24 05:41:34;;;;;;;21.98;17.20;;;14.40;76.10;;;;;;5053016;28;20025;-63
2020/12/24 05:44:05;;;;;;;18.75;14.93;;;14.40;76.30;;;;;;5053023;28;20036;-64
2020/12/24 05:46:41;;;;;;;21.77;16.27;;;14.40;76.20;;;;;;5052940;28;20347;-63
2020/12/24 05:49:15;;;;;;;22.35;17.52;;;14.40;76.30;;;;;;5052869;28;20083;-63
2020/12/24 05:51:45;;;;;;;22.65;17.00;;;14.40;76.60;;;;;;5052911;28;20024;-63
2020/12/24 05:54:12;;;;;;;22.35;16.83;;;14.40;76.40;;;;;;5052963;28;20478;-64
2020/12/24 05:56:39;;;;;;;22.80;16.30;;;14.40;76.30;;;;;;5051241;28;20076;-63
2020/12/24 05:59:05;;;;;;;17.10;13.40;;;14.40;76.40;;;;;;5052530;28;20048;-63
2020/12/24 06:01:40;;;;;;;16.55;12.82;;;14.50;76.40;;;;;;5052856;28;20043;-63
2020/12/24 06:04:09;;;;;;;15.57;12.05;;;14.50;76.20;;;;;;5052846;28;20025;-63
2020/12/24 06:06:46;;;;;;;17.65;12.30;;;14.50;76.60;;;;;;5052778;28;20063;-63
2020/12/24 06:09:14;;;;;;;17.13;12.30;;;14.50;76.50;;;;;;5052745;28;20087;-63
2020/12/24 06:11:49;;;;;;;14.95;11.00;;;14.50;76.60;;;;;;5052453;28;20049;-64
2020/12/24 06:14:35;;;;;;;14.02;11.13;;;14.50;77.10;;;;;;5055338;28;20045;-63
2020/12/24 06:17:07;;;;;;;17.13;11.38;;;14.50;76.90;;;;;;5056260;28;20116;-64
2020/12/24 06:19:38;;;;;;;15.25;12.00;;;14.50;77.00;;;;;;5056209;28;20377;-64
2020/12/24 06:22:04;;;;;;;15.38;11.25;;;14.50;76.90;;;;;;5056416;28;20415;-63
2020/12/24 06:24:32;;;;;;;15.13;11.48;;;14.60;77.00;;;;;;5056444;28;20032;-64
2020/12/24 06:27:03;;;;;;;17.77;11.55;;;14.60;76.40;;;;;;5056197;28;20049;-63
2020/12/24 06:29:32;;;;;;;14.75;10.93;;;14.60;76.50;;;;;;5056240;28;20029;-63
2020/12/24 06:31:59;;;;;;;17.35;11.32;;;14.60;76.70;;;;;;5056255;28;20017;-62
2020/12/24 06:34:28;;;;;;;16.25;10.00;;;14.60;77.10;;;;;;5056369;28;20047;-63
2020/12/24 06:36:54;;;;;;;15.20;10.07;;;14.60;77.00;;;;;;5056175;28;20048;-64
2020/12/24 06:39:40;;;;;;;17.38;11.23;;;14.60;77.20;;;;;;5056164;28;20024;-64
2020/12/24 06:42:26;;;;;;;13.45;9.80;;;14.60;77.30;;;;;;5056126;28;20025;-70
2020/12/24 06:44:52;;;;;;;12.95;9.98;;;14.60;77.40;;;;;;5055754;28;20029;-70
2020/12/24 06:47:18;;;;;;;17.10;9.75;;;14.60;78.30;;;;;;5055957;28;20104;-70
2020/12/24 06:49:44;;;;;;;14.43;10.05;;;14.60;77.90;;;;;;5055650;28;20040;-66
2020/12/24 06:52:11;;;;;;;14.13;9.75;;;14.60;77.90;;;;;;5055769;28;20486;-64
2020/12/24 06:54:38;;;;;;;11.95;9.52;;;14.60;77.80;;;;;;5054513;28;20029;-70
2020/12/24 06:57:24;;;;;;;12.98;9.70;;;14.60;78.10;;;;;;5055753;28;20041;-71
2020/12/24 07:00:18;;;;;;;14.63;10.23;;;14.60;78.30;;;;;;5055556;28;20036;-70
2020/12/24 07:02:45;;;;;;;;;;;14.60;78.60;;;;;;5056304;28;20373;-71
2020/12/24 07:05:47;;;;;;;12.18;9.45;;;14.70;78.70;;;;;;5055247;28;19904;-73
2020/12/24 07:08:31;;;;;;;15.23;10.48;;;14.70;78.70;;;;;;5055541;28;20029;-72
2020/12/24 07:10:57;;;;;;;13.35;10.65;;;14.70;78.60;;;;;;5055127;28;20053;-71
2020/12/24 07:13:41;;;;;;;15.80;10.10;;;14.70;78.60;;;;;;5055311;28;20021;-71
2020/12/24 07:16:10;;;;;;;17.23;10.68;;;14.70;79.00;;;;;;5055253;28;20053;-75
2020/12/24 07:18:37;;;;;;;15.27;10.82;;;14.70;78.80;;;;;;5053891;28;20059;-71
2020/12/24 07:21:05;;;;;;;16.13;11.60;;;14.70;78.80;;;;;;5055132;28;20108;-72
2020/12/24 07:23:35;;;;;;;16.10;11.00;;;14.70;78.90;;;;;;5055065;28;20032;-71
2020/12/24 07:26:03;;;;;;;14.70;10.57;;;14.70;79.10;;;;;;5054331;28;20437;-72
2020/12/24 07:28:31;;;;;;;18.40;11.25;;;14.80;79.00;;;;;;5054753;28;20029;-69
2020/12/24 07:30:57;;;;;;;13.77;10.32;;;14.80;79.10;;;;;;5054529;28;20084;-69
2020/12/24 07:33:24;;;;;;;13.05;10.93;;;14.80;79.20;;;;;;5054915;28;20029;-70
2020/12/24 07:35:49;;;;;;;17.02;11.70;;;14.90;79.30;;;;;;5054529;28;20572;-72
2020/12/24 07:38:19;;;;;;;18.08;12.40;;;14.90;79.20;;;;;;5054739;28;20104;-72
2020/12/24 07:40:45;;;;;;;19.83;11.40;;;14.90;79.00;;;;;;5054466;28;20112;-71
2020/12/24 07:43:11;;;;;;;14.57;11.43;;;14.90;79.20;;;;;;5054582;28;20056;-71
2020/12/24 07:45:37;;;;;;;15.10;11.05;;;15.00;79.30;;;;;;5054892;28;20067;-71
2020/12/24 07:48:10;;;;;;;16.88;11.15;;;15.00;79.20;;;;;;5054475;28;20021;-71
2020/12/24 07:50:36;;;;;;;17.77;12.15;;;15.00;79.00;;;;;;5054486;28;20064;-70
2020/12/24 07:53:02;;;;;;;17.58;11.40;;;15.00;79.00;;;;;;5054620;28;20021;-71
2020/12/24 07:55:28;;;;;;;16.08;12.18;;;15.10;79.10;;;;;;5054299;28;20090;-69
2020/12/24 07:58:05;;;;;;;17.88;12.10;;;15.10;78.90;;;;;;5054577;28;20378;-73
2020/12/24 08:00:37;;;;;;;15.63;11.18;;;15.10;78.90;;;;;;5054597;28;20037;-73
2020/12/24 08:03:03;;;;;;;14.90;10.90;;;15.10;78.80;;;;;;5054335;28;20018;-69
2020/12/24 08:05:29;;;;;;;14.57;10.95;;;15.20;78.80;;;;;;5054527;28;20025;-72
2020/12/24 08:07:54;;;;;;;16.73;11.70;;;15.20;78.80;;;;;;5054557;28;20028;-71
2020/12/24 08:10:20;;;;;;;18.58;11.90;;;15.20;78.70;;;;;;5054140;28;20041;-71
2020/12/24 08:12:46;;;;;;;17.38;12.35;;;15.20;78.60;;;;;;5054055;28;20044;-71
2020/12/24 08:15:20;;;;;;;15.10;11.55;;;15.20;78.70;;;;;;5054104;28;20061;-69
2020/12/24 08:17:58;;;;;;;17.33;12.05;;;15.30;79.10;;;;;;5054025;28;20017;-70
2020/12/24 08:20:42;;;;;;;16.15;12.00;;;15.30;78.40;;;;;;5053877;28;20021;-64
2020/12/24 08:23:26;;;;;;;;;;;15.30;78.70;;;;;;5054529;28;20025;-64
2020/12/24 08:25:55;;;;;;;19.90;12.30;;;15.30;79.10;;;;;;5053560;28;20008;-69
2020/12/24 08:28:21;;;;;;;21.40;12.48;;;15.30;78.50;;;;;;5053392;28;20366;-70
2020/12/24 08:30:48;;;;;;;16.40;12.60;;;15.40;78.30;;;;;;5053616;28;20033;-68
2020/12/24 08:33:14;;;;;;;18.08;12.68;;;15.30;78.30;;;;;;5053715;28;20493;-66
2020/12/24 08:35:40;;;;;;;19.10;13.05;;;15.40;78.30;;;;;;5053630;28;20036;-67
2020/12/24 08:38:10;;;;;;;16.48;12.45;;;15.40;78.40;;;;;;5053896;28;20093;-68
2020/12/24 08:40:36;;;;;;;14.85;12.10;;;15.50;78.30;;;;;;5053620;28;20121;-66
2020/12/24 08:43:06;;;;;;;17.10;13.55;;;15.50;78.20;;;;;;5053630;28;20028;-70
2020/12/24 08:45:32;;;;;;;17.17;12.80;;;15.60;77.90;;;;;;5053776;28;20037;-71
2020/12/24 08:47:57;;;;;;;20.05;13.02;;;15.60;77.80;;;;;;5053657;28;20497;-65
2020/12/24 08:50:30;;;;;;;19.02;13.48;;;15.70;77.80;;;;;;5053388;28;20025;-65
2020/12/24 08:52:56;;;;;;;17.15;12.98;;;15.70;77.40;;;;;;5053615;28;20104;-71
2020/12/24 08:55:29;;;;;;;18.50;13.13;;;15.80;77.60;;;;;;5053480;28;20112;-68
2020/12/24 08:57:55;;;;;;;16.67;12.93;;;15.80;78.00;;;;;;5053183;28;20074;-66
2020/12/24 09:00:23;;;;;;;14.70;12.43;;;15.80;77.50;;;;;;5053272;28;20027;-71
2020/12/24 09:02:48;;;;;;;16.92;12.10;;;15.80;77.50;;;;;;5053473;28;20111;-69
2020/12/24 09:05:21;;;;;;;18.77;13.05;;;15.90;77.60;;;;;;5053314;28;20069;-68
2020/12/24 09:07:47;;;;;;;14.83;12.33;;;15.90;77.90;;;;;;5053031;28;20032;-63
2020/12/24 09:10:15;;;;;;;19.75;13.48;;;15.90;77.90;;;;;;5052693;28;20275;-67
2020/12/24 09:12:43;;;;;;;16.67;11.98;;;16.00;77.20;;;;;;5053191;28;20033;-64
2020/12/24 09:15:16;;;;;;;18.35;11.70;;;16.00;77.00;;;;;;5053148;28;20237;-65
2020/12/24 09:17:52;;;;;;;14.70;9.00;;;16.00;77.50;;;;;;5053144;28;20083;-64
2020/12/24 09:20:25;;;;;;;14.95;11.02;;;16.10;76.80;;;;;;5052894;28;20029;-64
2020/12/24 09:22:58;;;;;;;14.60;10.20;;;16.10;76.60;;;;;;5052686;28;20379;-65
2020/12/24 09:25:35;;;;;;;18.42;11.63;;;16.10;77.10;;;;;;5052801;28;20521;-66
2020/12/24 09:28:02;;;;;;;19.52;10.10;;;16.20;76.30;;;;;;5052888;28;20047;-63
2020/12/24 09:30:28;;;;;;;20.85;11.05;;;16.20;76.20;;;;;;5052874;28;20105;-65
2020/12/24 09:32:56;;;;;;;15.98;10.95;;;16.30;76.10;;;;;;5053077;28;20029;-65
2020/12/24 09:35:23;;;;;;;13.27;10.10;;;16.30;75.80;;;;;;5052586;28;20040;-65
2020/12/24 09:37:49;;;;;;;12.40;8.80;;;16.30;75.80;;;;;;5052990;28;20409;-64
2020/12/24 09:40:14;;;;;;;13.70;9.45;;;16.30;75.70;;;;;;5052863;28;20136;-65
2020/12/24 09:42:40;;;;;;;13.55;8.45;;;16.40;75.50;;;;;;5052786;28;20025;-64
2020/12/24 09:45:06;;;;;;;16.17;9.65;;;16.40;75.60;;;;;;5052733;28;20056;-68
2020/12/24 09:47:32;;;;;;;15.80;10.13;;;16.40;75.30;;;;;;5052481;28;20086;-69
2020/12/24 09:49:57;;;;;;;13.30;8.38;;;16.50;75.40;;;;;;5056807;28;20048;-64
2020/12/24 09:52:23;;;;;;;13.95;8.77;;;16.50;75.10;;;;;;5056603;28;20533;-65
2020/12/24 09:54:48;;;;;;;12.52;8.55;;;16.50;75.00;;;;;;5056424;28;20059;-65
2020/12/24 09:57:14;;;;;;;14.55;8.35;;;16.50;75.20;;;;;;5056630;28;20501;-69
2020/12/24 09:59:40;;;;;;;13.10;7.57;;;16.50;74.80;;;;;;5056426;28;20485;-68
2020/12/24 10:02:06;;;;;;;13.20;7.85;;;16.50;75.00;;;;;;5056634;28;20029;-72
2020/12/24 10:04:32;;;;;;;14.82;8.45;;;16.60;75.00;;;;;;5056650;28;20630;-70
2020/12/24 10:06:57;;;;;;;13.85;7.65;;;16.60;74.70;;;;;;5055014;28;20120;-72
2020/12/24 10:09:23;;;;;;;15.98;8.23;;;16.70;74.40;;;;;;5056660;28;20021;-71
2020/12/24 10:11:49;;;;;;;12.57;7.65;;;16.80;74.40;;;;;;5054938;28;20056;-72
2020/12/24 10:14:15;;;;;;;14.75;7.53;;;16.80;74.10;;;;;;5054686;28;20115;-73
2020/12/24 10:16:41;;;;;;;13.07;8.10;;;16.80;73.80;;;;;;5056011;28;20098;-73
2020/12/24 10:19:08;;;;;;;16.90;8.30;;;16.90;73.90;;;;;;5055640;28;20013;-77
2020/12/24 10:21:33;;;;;;;15.82;9.00;;;16.90;73.80;;;;;;5055961;28;20094;-74
2020/12/24 10:23:59;;;;;;;17.65;9.43;;;16.90;73.60;;;;;;5056158;28;20029;-73
2020/12/24 10:26:25;;;;;;;13.60;8.90;;;16.90;73.50;;;;;;5056013;28;20025;-72
2020/12/24 10:28:55;;;;;;;13.82;8.38;;;17.00;73.30;;;;;;5055974;28;20024;-78
2020/12/24 10:31:20;;;;;;;103.45;14.75;;;17.20;73.50;;;;;;5055227;28;20108;-75
2020/12/24 10:33:46;;;;;;;21.83;8.80;;;17.30;72.50;;;;;;5056843;28;20068;-77
2020/12/24 10:36:18;;;;;;;16.55;8.73;;;17.40;72.00;;;;;;5056116;28;20028;-72
2020/12/24 10:38:43;;;;;;;16.25;9.13;;;17.50;71.80;;;;;;5054297;28;20029;-77
2020/12/24 10:41:12;;;;;;;20.40;10.85;;;17.50;71.80;;;;;;5055847;28;20177;-78
2020/12/24 10:43:38;;;;;;;22.77;10.57;;;17.60;72.10;;;;;;5055850;28;20044;-64
2020/12/24 10:46:05;;;;;;;18.17;9.32;;;17.60;72.50;;;;;;5055393;28;20059;-74
2020/12/24 10:48:31;;;;;;;13.27;8.77;;;17.50;72.40;;;;;;5055800;28;20029;-76
2020/12/24 10:50:57;;;;;;;16.02;8.50;;;17.50;71.50;;;;;;5055261;28;20347;-77
2020/12/24 10:53:22;;;;;;;14.43;8.80;;;17.50;71.50;;;;;;5055259;28;20028;-79
2020/12/24 10:55:49;;;;;;;14.32;9.18;;;17.60;71.40;;;;;;5054316;28;20065;-79
2020/12/24 10:58:15;;;;;;;17.77;10.02;;;17.60;71.20;;;;;;5054822;28;20033;-75
2020/12/24 11:00:41;;;;;;;13.98;8.95;;;17.60;71.00;;;;;;5053854;28;20026;-76
2020/12/24 11:03:10;;;;;;;18.77;8.20;;;17.60;71.00;;;;;;5055583;28;20122;-77
2020/12/24 11:05:38;;;;;;;14.15;6.90;;;17.60;70.70;;;;;;5055338;28;20024;-80
2020/12/24 11:08:04;;;;;;;13.77;4.80;;;17.50;70.60;;;;;;5053957;28;20048;-75
2020/12/24 11:10:30;;;;;;;10.05;4.22;;;17.50;70.30;;;;;;5055034;28;20387;-75
2020/12/24 11:12:55;;;;;;;10.52;4.15;;;17.50;70.20;;;;;;5055286;28;20033;-73
2020/12/24 11:15:21;;;;;;;7.53;4.00;;;17.40;70.10;;;;;;5055088;28;20032;-73
2020/12/24 11:17:46;;;;;;;10.82;3.67;;;17.50;69.90;;;;;;5055690;28;20119;-73
2020/12/24 11:20:12;;;;;;;11.40;3.80;;;17.50;69.60;;;;;;5054894;28;20017;-71
2020/12/24 11:22:38;;;;;;;10.70;3.13;;;17.50;69.60;;;;;;5054893;28;20454;-70
2020/12/24 11:25:05;;;;;;;10.07;3.72;;;17.60;69.60;;;;;;5054949;28;20454;-76
2020/12/24 11:27:30;;;;;;;7.72;2.95;;;17.70;69.20;;;;;;5055060;28;20025;-67
2020/12/24 11:29:56;;;;;;;6.00;3.40;;;17.90;68.80;;;;;;5054866;28;20386;-70
2020/12/24 11:32:22;;;;;;;8.07;3.70;;;18.00;68.60;;;;;;5054882;28;20056;-69
2020/12/24 11:34:47;;;;;;;5.72;3.33;;;18.00;68.30;;;;;;5054761;28;20044;-67
2020/12/24 11:37:13;;;;;;;5.88;2.75;;;17.90;68.80;;;;;;5054460;28;20029;-68
2020/12/24 11:39:39;;;;;;;7.03;3.03;;;17.90;68.50;;;;;;5054469;28;20551;-71
2020/12/24 11:42:04;;;;;;;5.97;2.95;;;17.90;69.00;;;;;;5054400;28;20029;-63
2020/12/24 11:44:30;;;;;;;11.90;3.13;;;18.00;68.80;;;;;;5054193;28;20027;-70
2020/12/24 11:46:58;;;;;;;11.30;3.58;;;18.00;68.20;;;;;;5054694;28;20111;-72
2020/12/24 11:49:24;;;;;;;8.48;3.50;;;18.00;68.60;;;;;;5053190;28;20046;-71
2020/12/24 11:51:50;;;;;;;6.10;2.92;;;18.10;68.40;;;;;;5054560;28;20320;-68
2020/12/24 11:54:17;;;;;;;7.65;2.95;;;18.00;68.40;;;;;;5054807;28;20555;-70
2020/12/24 11:56:43;;;;;;;5.68;2.28;;;18.10;68.30;;;;;;5054190;28;20123;-68
2020/12/24 11:59:08;;;;;;;7.78;3.45;;;18.10;67.70;;;;;;5054280;28;20071;-63
2020/12/24 12:01:34;;;;;;;7.15;3.00;;;18.10;67.90;;;;;;5054761;28;20036;-74
2020/12/24 12:04:00;;;;;;;5.35;2.63;;;18.30;67.90;;;;;;5054527;28;20009;-70
2020/12/24 12:06:26;;;;;;;7.22;2.60;;;18.30;67.40;;;;;;5054431;28;20032;-73
2020/12/24 12:08:55;;;;;;;5.60;2.20;;;18.40;66.80;;;;;;5054592;28;20120;-82
2020/12/24 12:11:20;;;;;;;4.43;2.10;;;18.40;67.10;;;;;;5053257;28;20045;-68
2020/12/24 12:13:48;;;;;;;5.10;2.45;;;18.30;66.60;;;;;;5053958;28;20017;-69
2020/12/24 12:16:14;;;;;;;5.95;2.28;;;18.20;66.50;;;;;;5053991;28;20029;-70
2020/12/24 12:18:40;;;;;;;6.43;2.85;;;18.20;66.50;;;;;;5053524;28;20048;-68
2020/12/24 12:21:05;;;;;;;6.00;2.40;;;18.20;66.30;;;;;;5054117;28;20036;-68
2020/12/24 12:23:32;;;;;;;5.57;2.83;;;18.30;66.00;;;;;;5053946;28;20088;-71
2020/12/24 12:25:59;;;;;;;6.50;2.70;;;18.30;65.30;;;;;;5053719;28;20036;-74
2020/12/24 12:28:25;;;;;;;7.30;3.10;;;18.40;65.60;;;;;;5053502;28;20032;-74
2020/12/24 12:30:50;;;;;;;6.95;3.03;;;18.60;65.50;;;;;;5056183;28;20077;-70
2020/12/24 12:33:16;;;;;;;9.95;3.10;;;18.70;66.00;;;;;;5060068;28;20032;-76
2020/12/24 12:35:42;;;;;;;6.95;3.30;;;18.70;65.00;;;;;;5058548;28;20102;-75